createdAt,value
2023-08-14T00:00:18.730Z,22.29
2023-08-14T00:03:25.861Z,22.20
2023-08-14T00:06:13.834Z,22.13
2023-08-14T00:09:00.570Z,22.08
2023-08-14T00:11:47.593Z,22.07
2023-08-14T00:14:34.254Z,22.02
2023-08-14T00:17:20.793Z,21.93
2023-08-14T00:20:08.966Z,21.92
2023-08-14T00:22:55.554Z,21.91
2023-08-14T00:25:42.605Z,21.89
2023-08-14T00:28:29.918Z,21.88
2023-08-14T00:31:18.431Z,21.89
2023-08-14T00:34:05.806Z,21.92
2023-08-14T00:36:52.716Z,21.94
2023-08-14T00:39:39.849Z,21.95
2023-08-14T00:42:29.353Z,21.96
2023-08-14T00:45:17.236Z,21.96
2023-08-14T00:48:06.279Z,21.96
2023-08-14T00:50:56.202Z,21.95
2023-08-14T00:53:42.694Z,21.98
2023-08-14T00:56:30.553Z,22.00
2023-08-14T00:59:16.895Z,22.02
2023-08-14T01:02:03.823Z,22.02
2023-08-14T01:04:50.575Z,22.03
2023-08-14T01:07:38.131Z,22.03
2023-08-14T01:10:28.456Z,22.02
2023-08-14T01:13:31.414Z,21.99
2023-08-14T01:16:27.563Z,22.00
2023-08-14T01:19:20.698Z,22.01
2023-08-14T01:22:29.049Z,22.02
2023-08-14T01:25:33.005Z,22.03
2023-08-14T01:28:19.841Z,22.02
2023-08-14T01:31:06.695Z,22.03
2023-08-14T01:33:54.851Z,21.99
2023-08-14T01:36:50.117Z,21.95
2023-08-14T01:39:43.577Z,21.90
2023-08-14T01:42:37.131Z,21.84
2023-08-14T01:45:25.822Z,21.83
2023-08-14T01:48:14.989Z,21.82
2023-08-14T01:51:02.396Z,21.82
2023-08-14T01:53:49.382Z,21.82
2023-08-14T01:56:36.370Z,21.81
2023-08-14T01:59:49.974Z,21.76
2023-08-14T02:02:37.183Z,21.73
2023-08-14T02:05:24.077Z,21.69
2023-08-14T02:08:11.114Z,21.67
2023-08-14T02:10:57.791Z,21.67
2023-08-14T02:13:44.539Z,21.68
2023-08-14T02:16:31.096Z,21.69
2023-08-14T02:19:20.425Z,21.69
2023-08-14T02:22:07.246Z,21.70
2023-08-14T02:24:54.326Z,21.71
2023-08-14T02:27:41.013Z,21.71
2023-08-14T02:30:27.934Z,21.70
2023-08-14T02:33:14.455Z,21.69
2023-08-14T02:36:01.309Z,21.69
2023-08-14T02:38:48.152Z,21.69
2023-08-14T02:41:34.877Z,21.69
2023-08-14T02:44:21.711Z,21.71
2023-08-14T02:47:08.770Z,21.72
2023-08-14T02:49:56.913Z,21.72
2023-08-14T02:52:46.498Z,21.71
2023-08-14T02:55:33.977Z,21.69
2023-08-14T02:58:21.265Z,21.66
2023-08-14T03:01:08.286Z,21.63
2023-08-14T03:03:55.446Z,21.61
2023-08-14T03:06:42.195Z,21.58
2023-08-14T03:09:29.221Z,21.59
2023-08-14T03:12:16.545Z,21.59
2023-08-14T03:15:07.742Z,21.60
2023-08-14T03:17:54.795Z,21.61
2023-08-14T03:20:41.771Z,21.62
2023-08-14T03:23:28.784Z,21.59
2023-08-14T03:26:15.585Z,21.56
2023-08-14T03:29:02.233Z,21.54
2023-08-14T03:31:49.812Z,21.52
2023-08-14T03:34:36.696Z,21.52
2023-08-14T03:37:25.890Z,21.52
2023-08-14T03:40:12.564Z,21.52
2023-08-14T03:43:00.677Z,21.51
2023-08-14T03:45:47.769Z,21.50
2023-08-14T03:48:39.189Z,21.44
2023-08-14T03:51:47.441Z,21.38
2023-08-14T03:54:34.678Z,21.34
2023-08-14T03:57:24.872Z,21.32
2023-08-14T04:00:12.007Z,21.27
2023-08-14T04:03:03.569Z,21.21
2023-08-14T04:05:56.300Z,21.19
2023-08-14T04:08:45.107Z,21.19
2023-08-14T04:11:35.975Z,21.20
2023-08-14T04:14:24.530Z,21.23
2023-08-14T04:17:11.408Z,21.24
2023-08-14T04:19:58.234Z,21.26
2023-08-14T04:22:46.635Z,21.27
2023-08-14T04:25:33.397Z,21.29
2023-08-14T04:28:20.885Z,21.33
2023-08-14T04:31:08.577Z,21.38
2023-08-14T04:33:57.215Z,21.40
2023-08-14T04:36:45.022Z,21.42
2023-08-14T04:39:32.820Z,21.43
2023-08-14T04:42:19.675Z,21.46
2023-08-14T04:45:07.579Z,21.44
2023-08-14T04:47:57.331Z,21.45
2023-08-14T04:50:45.488Z,21.47
2023-08-14T04:53:33.993Z,21.55
2023-08-14T04:56:21.068Z,21.60
2023-08-14T04:59:08.339Z,21.66
2023-08-14T05:01:57.692Z,21.71
2023-08-14T05:04:45.731Z,21.74
2023-08-14T05:07:33.055Z,21.78
2023-08-14T05:10:21.788Z,21.84
2023-08-14T05:13:08.566Z,21.89
2023-08-14T05:16:07.064Z,21.93
2023-08-14T05:18:57.453Z,21.96
2023-08-14T05:21:45.977Z,21.95
2023-08-14T05:24:32.975Z,21.97
2023-08-14T05:27:19.576Z,22.03
2023-08-14T05:30:09.442Z,22.09
2023-08-14T05:32:56.010Z,22.19
2023-08-14T05:35:42.990Z,22.30
2023-08-14T05:38:29.790Z,22.36
2023-08-14T05:41:19.471Z,22.42
2023-08-14T05:44:08.090Z,22.50
2023-08-14T05:46:58.231Z,22.56
2023-08-14T05:49:47.329Z,22.62
2023-08-14T05:52:33.881Z,22.69
2023-08-14T05:55:20.936Z,22.73
2023-08-14T05:58:07.980Z,22.80
2023-08-14T06:00:54.757Z,22.83
2023-08-14T06:03:44.955Z,22.88
2023-08-14T06:06:34.633Z,22.87
2023-08-14T06:12:12.684Z,22.91
2023-08-14T06:14:59.988Z,22.94
2023-08-14T06:17:47.996Z,22.96
2023-08-14T06:20:34.587Z,22.98
2023-08-14T06:23:23.890Z,23.05
2023-08-14T06:26:10.785Z,23.13
2023-08-14T06:28:57.368Z,23.20
2023-08-14T06:31:45.287Z,23.24
2023-08-14T06:34:34.493Z,23.28
2023-08-14T06:37:21.141Z,23.29
2023-08-14T06:40:11.462Z,23.29
2023-08-14T06:42:57.986Z,23.33
2023-08-14T06:45:50.049Z,23.38
2023-08-14T06:48:36.754Z,23.45
2023-08-14T06:51:24.883Z,23.54
2023-08-14T06:54:12.075Z,23.61
2023-08-14T06:57:02.092Z,23.69
2023-08-14T06:59:48.778Z,23.77
2023-08-14T07:02:35.965Z,23.81
2023-08-14T07:05:23.031Z,23.83
2023-08-14T07:08:11.248Z,23.87
2023-08-14T07:11:00.474Z,23.93
2023-08-14T07:13:47.113Z,24.02
2023-08-14T07:16:34.059Z,24.09
2023-08-14T07:19:20.890Z,24.16
2023-08-14T07:22:07.911Z,24.21
2023-08-14T07:24:54.758Z,24.26
2023-08-14T07:27:41.694Z,24.31
2023-08-14T07:30:31.304Z,24.37
2023-08-14T07:33:17.866Z,24.43
2023-08-14T07:36:04.835Z,24.45
2023-08-14T07:38:53.392Z,24.47
2023-08-14T07:41:40.117Z,24.51
2023-08-14T07:44:26.933Z,24.57
2023-08-14T07:47:16.352Z,24.64
2023-08-14T07:50:03.392Z,24.70
2023-08-14T07:52:50.369Z,24.77
2023-08-14T07:55:38.309Z,24.81
2023-08-14T07:58:25.058Z,24.86
2023-08-14T08:01:11.837Z,24.91
2023-08-14T08:03:58.975Z,24.97
2023-08-14T08:06:46.137Z,25.02
2023-08-14T08:09:33.192Z,25.08
2023-08-14T08:12:20.542Z,25.14
2023-08-14T08:15:07.958Z,25.22
2023-08-14T08:17:54.917Z,25.30
2023-08-14T08:20:41.929Z,25.38
2023-08-14T08:23:29.014Z,25.46
2023-08-14T08:26:16.574Z,25.53
2023-08-14T08:29:04.989Z,25.60
2023-08-14T08:31:51.925Z,25.68
2023-08-14T08:34:38.883Z,25.76
2023-08-14T08:37:25.849Z,25.83
2023-08-14T08:40:13.571Z,25.89
2023-08-14T08:43:01.639Z,25.94
2023-08-14T08:45:51.533Z,26.00
2023-08-14T08:48:46.126Z,26.06
2023-08-14T08:51:34.602Z,26.13
2023-08-14T08:54:21.514Z,26.20
2023-08-14T08:57:08.401Z,26.28
2023-08-14T08:59:57.016Z,26.37
2023-08-14T09:02:47.338Z,26.45
2023-08-14T09:05:34.679Z,26.51
2023-08-14T09:08:21.758Z,26.59
2023-08-14T09:11:08.445Z,26.65
2023-08-14T09:13:56.232Z,26.73
2023-08-14T09:16:42.977Z,26.82
2023-08-14T09:19:29.904Z,26.88
2023-08-14T09:22:17.308Z,26.94
2023-08-14T09:25:04.283Z,26.98
2023-08-14T09:27:51.466Z,27.01
2023-08-14T09:30:39.059Z,27.05
2023-08-14T09:33:26.482Z,27.09
2023-08-14T09:36:18.049Z,27.12
2023-08-14T09:39:07.648Z,27.18
2023-08-14T09:41:54.971Z,27.24
2023-08-14T09:44:42.415Z,27.25
2023-08-14T09:47:32.378Z,27.29
2023-08-14T09:50:21.413Z,27.35
2023-08-14T09:53:08.192Z,27.38
2023-08-14T09:55:55.277Z,27.41
2023-08-14T09:58:42.759Z,27.46
2023-08-14T10:01:29.927Z,27.50
2023-08-14T10:04:18.474Z,27.54
2023-08-14T10:07:08.349Z,27.58
2023-08-14T10:09:58.537Z,27.61
2023-08-14T10:12:53.278Z,27.64
2023-08-14T10:15:43.848Z,27.68
2023-08-14T10:18:34.240Z,27.72
2023-08-14T10:21:22.126Z,27.79
2023-08-14T10:24:09.344Z,27.84
2023-08-14T10:26:58.109Z,27.92
2023-08-14T10:29:46.234Z,27.99
2023-08-14T10:32:34.407Z,28.05
2023-08-14T10:35:22.119Z,28.11
2023-08-14T10:38:11.329Z,28.14
2023-08-14T10:41:18.125Z,28.17
2023-08-14T10:44:11.883Z,28.22
2023-08-14T10:47:05.930Z,28.23
2023-08-14T10:49:54.385Z,28.28
2023-08-14T10:52:45.445Z,28.32
2023-08-14T10:55:46.576Z,28.34
2023-08-14T10:58:34.469Z,28.39
2023-08-14T11:01:21.476Z,28.46
2023-08-14T11:04:22.295Z,28.50
2023-08-14T11:07:13.005Z,28.55
2023-08-14T11:10:03.292Z,28.59
2023-08-14T11:12:52.167Z,28.61
2023-08-14T11:15:42.964Z,28.65
2023-08-14T11:18:30.472Z,28.67
2023-08-14T11:21:31.452Z,28.71
2023-08-14T11:24:21.387Z,28.77
2023-08-14T11:27:08.625Z,28.80
2023-08-14T11:29:57.997Z,28.86
2023-08-14T11:32:47.395Z,28.89
2023-08-14T11:35:34.600Z,28.93
2023-08-14T11:38:23.479Z,28.99
2023-08-14T11:41:10.745Z,29.03
2023-08-14T11:43:57.795Z,29.05
2023-08-14T11:46:45.324Z,29.06
2023-08-14T11:49:36.018Z,29.09
2023-08-14T11:52:24.192Z,29.12
2023-08-14T11:55:11.784Z,29.16
2023-08-14T11:58:01.609Z,29.22
2023-08-14T12:00:52.703Z,29.26
2023-08-14T12:03:39.496Z,29.32
2023-08-14T12:06:26.538Z,29.38
2023-08-14T12:09:13.653Z,29.45
2023-08-14T12:12:00.924Z,29.49
2023-08-14T12:14:52.244Z,29.51
2023-08-14T12:17:43.830Z,29.52
2023-08-14T12:20:35.377Z,29.56
2023-08-14T12:23:26.128Z,29.59
2023-08-14T12:26:13.217Z,29.62
2023-08-14T12:29:00.168Z,29.63
2023-08-14T12:31:48.103Z,29.65
2023-08-14T12:34:37.691Z,29.70
2023-08-14T12:37:28.882Z,29.74
2023-08-14T12:40:16.771Z,29.78
2023-08-14T12:43:04.530Z,29.81
2023-08-14T12:45:51.146Z,29.86
2023-08-14T12:48:38.228Z,29.90
2023-08-14T12:51:25.244Z,29.93
2023-08-14T12:54:14.410Z,29.97
2023-08-14T13:02:41.439Z,30.03
2023-08-14T13:05:31.459Z,30.05
2023-08-14T13:08:18.758Z,30.07
2023-08-14T13:11:05.545Z,30.07
2023-08-14T13:13:53.623Z,30.09
2023-08-14T13:16:40.884Z,30.14
2023-08-14T13:19:27.958Z,30.17
2023-08-14T13:22:17.356Z,30.20
2023-08-14T13:25:06.629Z,30.24
2023-08-14T13:27:57.298Z,30.27
2023-08-14T13:30:45.162Z,30.30
2023-08-14T13:33:32.068Z,30.33
2023-08-14T13:36:18.746Z,30.32
2023-08-14T13:39:07.238Z,30.31
2023-08-14T13:41:54.419Z,30.32
2023-08-14T13:44:41.487Z,30.32
2023-08-14T13:47:33.461Z,30.35
2023-08-14T13:53:15.097Z,30.33
2023-08-14T13:56:01.946Z,30.33
2023-08-14T13:58:48.900Z,30.34
2023-08-14T14:01:35.641Z,30.35
2023-08-14T14:04:22.682Z,30.35
2023-08-14T14:07:09.393Z,30.33
2023-08-14T14:09:56.315Z,30.32
2023-08-14T14:12:55.949Z,30.32
2023-08-14T14:15:49.419Z,30.32
2023-08-14T14:18:36.289Z,30.31
2023-08-14T14:21:22.990Z,30.30
2023-08-14T14:24:09.664Z,30.29
2023-08-14T14:27:00.972Z,30.28
2023-08-14T14:29:48.019Z,30.28
2023-08-14T14:32:34.932Z,30.26
2023-08-14T14:35:22.496Z,30.25
2023-08-14T14:38:10.755Z,30.21
2023-08-14T14:41:04.173Z,30.19
2023-08-14T14:43:51.170Z,30.17
2023-08-14T14:46:44.026Z,30.13
2023-08-14T14:49:30.973Z,30.08
2023-08-14T14:52:18.012Z,30.04
2023-08-14T14:55:07.838Z,30.01
2023-08-14T14:57:55.517Z,29.97
2023-08-14T15:00:42.419Z,29.92
2023-08-14T15:03:29.049Z,29.88
2023-08-14T15:06:16.204Z,29.85
2023-08-14T15:09:02.719Z,29.83
2023-08-14T15:11:49.783Z,29.82
2023-08-14T15:14:36.758Z,29.80
2023-08-14T15:17:23.873Z,29.78
2023-08-14T15:20:11.462Z,29.76
2023-08-14T15:22:58.541Z,29.71
2023-08-14T15:25:45.500Z,29.66
2023-08-14T15:28:33.421Z,29.63
2023-08-14T15:31:20.214Z,29.61
2023-08-14T15:34:07.973Z,29.59
2023-08-14T15:36:54.755Z,29.53
2023-08-14T15:39:41.577Z,29.50
2023-08-14T15:42:28.623Z,29.48
2023-08-14T15:45:15.270Z,29.46
2023-08-14T15:48:02.149Z,29.42
2023-08-14T15:50:51.236Z,29.38
2023-08-14T15:53:38.024Z,29.34
2023-08-14T15:56:25.054Z,29.32
2023-08-14T15:59:11.697Z,29.30
2023-08-14T16:01:58.774Z,29.26
2023-08-14T16:04:48.878Z,29.23
2023-08-14T16:07:36.119Z,29.19
2023-08-14T16:10:23.126Z,29.18
2023-08-14T16:13:10.100Z,29.14
2023-08-14T16:15:57.157Z,29.09
2023-08-14T16:18:44.156Z,29.05
2023-08-14T16:21:32.122Z,28.99
2023-08-14T16:24:18.928Z,28.93
2023-08-14T16:27:06.766Z,28.87
2023-08-14T16:29:53.668Z,28.81
2023-08-14T16:32:40.957Z,28.73
2023-08-14T16:35:31.534Z,28.68
2023-08-14T16:38:18.382Z,28.64
2023-08-14T16:41:05.321Z,28.57
2023-08-14T16:43:52.581Z,28.53
2023-08-14T16:46:39.391Z,28.47
2023-08-14T16:49:26.349Z,28.41
2023-08-14T16:52:16.366Z,28.34
2023-08-14T16:55:03.928Z,28.25
2023-08-14T16:57:50.787Z,28.14
2023-08-14T17:00:38.984Z,28.03
2023-08-14T17:03:26.214Z,27.93
2023-08-14T17:06:12.947Z,27.83
2023-08-14T17:09:01.238Z,27.72
2023-08-14T17:11:47.963Z,27.60
2023-08-14T17:14:35.256Z,27.49
2023-08-14T17:17:22.386Z,27.37
2023-08-14T17:20:13.088Z,27.28
2023-08-14T17:22:59.896Z,27.18
2023-08-14T17:25:54.152Z,27.08
2023-08-14T17:28:41.117Z,26.97
2023-08-14T17:31:27.860Z,26.85
2023-08-14T17:34:15.482Z,26.74
2023-08-14T17:37:02.718Z,26.64
2023-08-14T17:39:50.321Z,26.56
2023-08-14T17:42:40.124Z,26.47
2023-08-14T17:45:26.722Z,26.38
2023-08-14T17:48:13.824Z,26.30
2023-08-14T17:51:00.806Z,26.21
2023-08-14T17:53:47.789Z,26.12
2023-08-14T17:56:34.684Z,26.04
2023-08-14T17:59:21.511Z,25.97
2023-08-14T18:02:08.517Z,25.89
2023-08-14T18:04:55.448Z,25.79
2023-08-14T18:07:43.201Z,25.72
2023-08-14T18:10:30.126Z,25.66
2023-08-14T18:13:16.992Z,25.61
2023-08-14T18:16:06.071Z,25.55
2023-08-14T18:19:00.853Z,25.49
2023-08-14T18:21:54.985Z,25.45
2023-08-14T18:24:43.961Z,25.40
2023-08-14T18:27:30.577Z,25.36
2023-08-14T18:30:17.443Z,25.31
2023-08-14T18:33:04.962Z,25.28
2023-08-14T18:35:52.419Z,25.25
2023-08-14T18:38:39.098Z,25.20
2023-08-14T18:41:25.600Z,25.15
2023-08-14T18:44:12.675Z,25.11
2023-08-14T18:46:59.154Z,25.08
2023-08-14T18:49:47.053Z,25.03
2023-08-14T18:52:34.170Z,24.98
2023-08-14T18:55:24.168Z,24.94
2023-08-14T18:58:10.817Z,24.90
2023-08-14T19:00:57.617Z,24.84
2023-08-14T19:03:44.440Z,24.75
2023-08-14T19:06:31.029Z,24.66
2023-08-14T19:09:18.103Z,24.60
2023-08-14T19:12:07.649Z,24.53
2023-08-14T19:14:54.769Z,24.46
2023-08-14T19:17:41.351Z,24.36
2023-08-14T19:20:29.011Z,24.26
2023-08-14T19:23:15.804Z,24.20
2023-08-14T19:26:12.017Z,24.15
2023-08-14T19:29:05.544Z,24.08
2023-08-14T19:31:52.483Z,24.00
2023-08-14T19:34:39.418Z,23.90
2023-08-14T19:37:26.318Z,23.81
2023-08-14T19:40:13.465Z,23.74
2023-08-14T19:43:00.169Z,23.66
2023-08-14T19:45:47.030Z,23.56
2023-08-14T19:48:34.843Z,23.48
2023-08-14T19:51:22.164Z,23.43
2023-08-14T19:54:08.998Z,23.39
2023-08-14T19:56:55.980Z,23.33
2023-08-14T19:59:43.274Z,23.32
2023-08-14T20:02:30.166Z,23.31
2023-08-14T20:05:17.499Z,23.30
2023-08-14T20:08:08.048Z,23.31
2023-08-14T20:11:02.289Z,23.31
2023-08-14T20:13:51.860Z,23.27
2023-08-14T20:16:38.572Z,23.22
2023-08-14T20:19:25.348Z,23.14
2023-08-14T20:22:12.505Z,23.06
2023-08-14T20:24:59.527Z,23.00
2023-08-14T20:27:46.299Z,22.97
2023-08-14T20:30:40.308Z,22.94
2023-08-14T20:33:27.049Z,22.88
2023-08-14T20:36:24.342Z,22.81
2023-08-14T20:39:15.489Z,22.75
2023-08-14T20:42:02.505Z,22.66
2023-08-14T20:44:51.581Z,22.61
2023-08-14T20:47:38.790Z,22.58
2023-08-14T20:50:25.749Z,22.59
2023-08-14T20:53:14.757Z,22.59
2023-08-14T20:56:03.350Z,22.53
2023-08-14T20:58:52.583Z,22.44
2023-08-14T21:01:39.555Z,22.39
2023-08-14T21:04:29.121Z,22.37
2023-08-14T21:07:15.906Z,22.38
2023-08-14T21:10:03.988Z,22.39
2023-08-14T21:12:51.659Z,22.37
2023-08-14T21:15:38.860Z,22.29
2023-08-14T21:18:26.036Z,22.16
2023-08-14T21:21:12.857Z,22.14
2023-08-14T21:23:59.682Z,22.13
2023-08-14T21:26:46.781Z,22.13
2023-08-14T21:29:33.440Z,22.07
2023-08-14T21:32:23.109Z,21.92
2023-08-14T21:35:10.142Z,21.81
2023-08-14T21:37:57.031Z,21.75
2023-08-14T21:40:44.247Z,21.72
2023-08-14T21:43:31.553Z,21.74
2023-08-14T21:46:18.201Z,21.71
2023-08-14T21:49:04.919Z,21.67
2023-08-14T21:51:52.064Z,21.64
2023-08-14T21:54:40.230Z,21.65
2023-08-14T21:57:27.000Z,21.67
2023-08-14T22:00:14.469Z,21.69
2023-08-14T22:03:01.439Z,21.69
2023-08-14T22:05:48.014Z,21.63
2023-08-14T22:08:34.998Z,21.61
2023-08-14T22:11:21.920Z,21.54
2023-08-14T22:14:12.229Z,21.44
2023-08-14T22:16:58.972Z,21.34
2023-08-14T22:19:48.379Z,21.28
2023-08-14T22:22:35.360Z,21.31
2023-08-14T22:25:25.836Z,21.32
2023-08-14T22:28:12.223Z,21.34
2023-08-14T22:30:59.206Z,21.31
2023-08-14T22:33:46.006Z,21.24
2023-08-14T22:36:35.910Z,21.17
2023-08-14T22:39:23.084Z,21.16
2023-08-14T22:42:09.717Z,21.15
2023-08-14T22:44:56.355Z,21.15
2023-08-14T22:47:43.548Z,21.09
2023-08-14T22:50:31.416Z,20.98
2023-08-14T22:53:19.046Z,20.87
2023-08-14T22:56:06.300Z,20.82
2023-08-14T22:58:56.055Z,20.77
2023-08-14T23:01:43.028Z,20.76
2023-08-14T23:04:29.920Z,20.79
2023-08-14T23:07:16.817Z,20.82
2023-08-14T23:10:04.019Z,20.83
2023-08-14T23:12:50.640Z,20.81
2023-08-14T23:15:37.564Z,20.65
2023-08-14T23:18:27.098Z,20.50
2023-08-14T23:21:14.343Z,20.40
2023-08-14T23:24:01.386Z,20.36
2023-08-14T23:26:48.371Z,20.38
2023-08-14T23:29:34.951Z,20.42
2023-08-14T23:32:21.791Z,20.45
2023-08-14T23:35:09.640Z,20.37
2023-08-14T23:37:56.413Z,20.30
2023-08-14T23:40:43.192Z,20.21
2023-08-14T23:43:30.304Z,20.16
2023-08-14T23:46:17.342Z,20.12
2023-08-14T23:49:04.732Z,20.07
2023-08-14T23:51:51.517Z,20.03
2023-08-14T23:54:38.255Z,20.02
2023-08-14T23:57:25.109Z,20.05
